Latest Weather Observations for Ballera

IDQ60801

Issued at 11:02 pm EST Friday 15 November 2019 (issued every 10 minutes, with the page automatically refreshed every 10 minutes)

About weather observations | Map of weather stations | Latest weather observations for QLD | Other Formats
Station Details ID: 045009 Name: BALLERA GAS FIELD Lat: -27.40 Lon: 141.81 Height: 114.5 m
Data from the previous 72 hours. | See also: Recent months at Ballera
Date/Time
EST
Temp
°C
App
Temp
°C
Dew
Point
°C
Rel
Hum
%
Delta-T
°C
Wind Press
QNH
hPa
Press
MSL
hPa
Rain since
9am
mm
Dir  Spd
km/h
Gust
km/h
Spd
kts
Gust
kts
15/11:00pm 25.0 18.7 -6.3 12 12.9 SW 19 19 10 10 1013.9 1013.2 -
15/10:30pm 25.6 19.3 -5.9 12 13.1 SW 19 20 10 11 1013.9 1013.2 0.0
15/10:00pm 26.2 19.6 -6.5 11 13.5 SW 20 20 11 11 1013.7 1013.0 0.0
15/09:30pm 26.5 20.5 -6.3 11 13.7 SW 17 19 9 10 1013.5 1012.8 0.0
15/09:00pm 27.5 21.6 -5.6 11 14.1 SW 17 20 9 11 1013.3 1012.6 0.0
15/08:30pm 28.1 22.9 -6.3 10 14.6 SW 13 15 7 8 1013.0 1012.3 0.0
15/08:00pm 29.6 24.5 -5.2 10 15.2 SW 13 17 7 9 1012.9 1012.2 0.0
15/07:30pm 30.6 24.7 -5.8 9 15.9 SW 17 19 9 10 1012.6 1011.9 0.0
15/07:00pm 31.6 25.4 -5.1 9 16.3 SW 19 22 10 12 1012.3 1011.6 0.0
15/06:30pm 32.7 26.8 -5.8 8 17.1 WSW 17 20 9 11 1011.9 1011.2 0.0
15/06:00pm 33.1 27.6 -5.5 8 17.3 SW 15 24 8 13 1011.7 1011.0 0.0
15/05:30pm 33.8 28.7 -5.0 8 17.6 WSW 13 22 7 12 1011.5 1010.9 0.0
15/05:00pm 33.6 29.3 -5.2 8 17.5 WSW 9 19 5 10 1011.4 1010.7 0.0
15/04:30pm 34.0 27.6 -4.9 8 17.7 SW 20 32 11 17 1011.3 1010.6 0.0
15/04:00pm 33.2 27.3 -5.5 8 17.3 SW 17 26 9 14 1011.5 1010.9 0.0
15/03:30pm 33.8 29.1 -5.0 8 17.6 WSW 11 24 6 13 1011.5 1010.9 0.0
15/03:00pm 33.0 26.7 -4.0 9 17.0 SSW 20 32 11 17 1011.8 1011.1 0.0
15/02:30pm 33.1 28.5 -4.0 9 17.0 SE 11 26 6 14 1012.1 1011.4 0.0
15/02:00pm 33.6 27.3 -3.6 9 17.2 SSW 20 33 11 18 1012.4 1011.7 0.0
15/01:30pm 32.0 26.3 -3.4 10 16.3 WSW 17 26 9 14 1012.8 1012.1 0.0
15/01:00pm 31.5 27.3 -3.8 10 16.0 SSE 9 19 5 10 1013.2 1012.5 0.0
15/12:30pm 31.6 27.0 -3.7 10 16.1 SSW 11 24 6 13 1013.7 1013.0 0.0
15/12:00pm 30.3 24.6 -3.4 11 15.3 S 17 28 9 15 1014.1 1013.4 0.0
15/11:30am 30.0 24.8 -2.5 12 14.9 S 15 22 8 12 1014.4 1013.7 0.0
15/11:00am 30.1 26.6 -1.3 13 14.7 SSW 7 19 4 10 1014.9 1014.2 0.0
15/10:30am 29.5 25.6 -1.8 13 14.5 E 9 15 5 8 1015.3 1014.6 0.0
15/10:00am 28.9 25.0 -1.2 14 14.0 SE 9 20 5 11 1015.7 1015.0 0.0
15/09:30am 28.8 24.7 -0.4 15 13.8 E 11 15 6 8 1015.9 1015.2 0.0
15/09:00am 27.5 23.7 -0.5 16 13.1 SE 9 15 5 8 1016.1 1015.4 0.0
15/08:30am 26.4 23.1 0.2 18 12.3 SE 7 11 4 6 1016.0 1015.3 0.0
15/08:00am 24.4 21.2 0.7 21 11.0 SE 7 9 4 5 1016.0 1015.3 0.0
15/07:30am 22.3 19.0 0.2 23 10.0 SE 7 9 4 5 1015.7 1015.0 0.0
15/07:00am 20.6 17.5 -0.1 25 9.2 SE 6 7 3 4 1015.4 1014.7 0.0
15/06:30am 18.4 14.7 0.1 29 8.0 SE 9 13 5 7 1015.0 1014.3 0.0
15/06:00am 16.9 13.5 -0.3 31 7.4 SE 7 11 4 6 1014.7 1014.0 0.0
15/05:30am 17.0 13.7 -0.2 31 7.4 SE 7 9 4 5 1014.2 1013.5 0.0
15/05:00am 19.1 15.4 -2.5 23 9.0 SE 7 9 4 5 1013.9 1013.2 0.0
15/04:30am 20.7 17.5 0.5 26 9.1 SE 7 9 4 5 1013.7 1013.0 0.0
15/04:00am 20.0 16.9 -0.1 26 8.9 SE 6 7 3 4 1013.6 1012.9 0.0
15/03:30am 20.0 16.3 -0.1 26 8.9 SE 9 9 5 5 1013.5 1012.8 0.0
15/03:00am 20.4 16.7 -0.3 25 9.2 SE 9 11 5 6 1013.6 1012.9 0.0
15/02:30am 20.6 16.9 -0.1 25 9.2 SE 9 9 5 5 1013.6 1012.9 0.0
15/02:00am 20.5 16.7 -0.7 24 9.3 SE 9 11 5 6 1013.8 1013.1 0.0
15/01:30am 20.7 16.5 -1.1 23 9.5 SE 11 13 6 7 1014.0 1013.3 0.0
15/01:00am 21.3 17.1 -0.6 23 9.7 SE 11 13 6 7 1014.2 1013.5 0.0
15/12:30am 20.9 16.6 -1.6 22 9.8 SE 11 13 6 7 1014.5 1013.8 0.0
15/12:00am 21.7 17.4 -1.6 21 10.2 SE 11 13 6 7 1014.9 1014.2 0.0
 
Date/Time
EST
Temp
°C
App
Temp
°C
Dew
Point
°C
Rel
Hum
%
Delta-T
°C
Wind Press
QNH
hPa
Press
MSL
hPa
Rain since
9am
mm
Dir  Spd
km/h
Gust
km/h
Spd
kts
Gust
kts
14/11:30pm 22.0 17.3 -2.0 20 10.4 SE 13 15 7 8 1015.1 1014.4 0.0
14/11:00pm 22.5 18.2 -1.6 20 10.6 SE 11 13 6 7 1015.3 1014.6 0.0
14/10:30pm 22.3 17.9 -2.4 19 10.7 SSE 11 15 6 8 1015.3 1014.6 0.0
14/10:00pm 22.9 18.2 -1.9 19 10.9 SSE 13 15 7 8 1015.4 1014.7 0.0
14/09:30pm 23.1 18.7 -2.5 18 11.1 SSE 11 13 6 7 1015.5 1014.8 0.0
14/09:00pm 24.6 19.4 -2.9 16 12.0 SSE 15 17 8 9 1015.2 1014.5 0.0
14/08:30pm 25.3 20.2 -2.3 16 12.3 SSE 15 17 8 9 1015.0 1014.3 0.0
14/08:00pm 26.1 20.8 -3.5 14 12.9 SSE 15 17 8 9 1014.8 1014.1 0.0
14/07:30pm 27.2 21.1 -3.6 13 13.6 SSE 19 22 10 12 1014.6 1013.9 0.0
14/07:00pm 28.0 21.7 -4.0 12 14.1 SSE 20 26 11 14 1014.5 1013.8 0.0
14/06:30pm 28.9 22.2 -4.5 11 14.7 S 22 33 12 18 1014.3 1013.6 0.0
14/06:00pm 29.3 23.2 -4.2 11 14.9 SE 19 24 10 13 1014.1 1013.4 0.0
14/05:30pm 29.6 22.9 -3.9 11 15.0 SSE 22 32 12 17 1014.0 1013.3 0.0
14/05:00pm 29.9 24.6 -3.7 11 15.1 SE 15 28 8 15 1014.0 1013.3 0.0
14/04:30pm 30.9 24.8 -4.2 10 15.8 SSE 19 32 10 17 1014.2 1013.5 0.0
14/04:00pm 29.7 23.3 -5.1 10 15.2 SSW 20 32 11 17 1014.5 1013.8 0.0
14/03:30pm 30.3 25.0 -3.4 11 15.3 SSE 15 28 8 15 1014.7 1014.0 0.0
14/03:00pm 29.4 23.3 -4.1 11 14.9 SSE 19 32 10 17 1015.1 1014.4 0.0
14/02:30pm 28.7 22.3 -4.6 11 14.6 SSE 20 33 11 18 1015.5 1014.8 0.0
14/02:00pm 28.5 22.8 -3.6 12 14.3 ESE 17 35 9 19 1016.0 1015.3 0.0
14/01:30pm 28.2 22.6 -2.8 13 14.0 ESE 17 32 9 17 1016.4 1015.7 0.0
14/01:00pm 28.4 22.3 -2.6 13 14.0 ESE 20 30 11 16 1017.0 1016.3 0.0
14/12:30pm 28.1 22.5 -2.9 13 13.9 ESE 17 26 9 14 1017.4 1016.7 0.0
14/12:00pm 28.8 22.8 -1.3 14 14.0 SE 20 33 11 18 1018.0 1017.3 0.0
14/11:30am 26.6 19.6 -3.1 14 13.1 SE 24 35 13 19 1018.5 1017.8 0.0
14/11:00am 27.1 19.9 -1.7 15 13.1 ESE 26 39 14 21 1019.0 1018.3 0.0
14/10:30am 26.0 18.3 -2.6 15 12.7 ESE 28 37 15 20 1019.3 1018.7 0.0
14/10:00am 24.9 17.2 -2.6 16 12.1 SE 28 39 15 21 1019.6 1019.0 0.0
14/09:30am 24.2 17.2 -3.2 16 11.9 ESE 24 37 13 20 1019.7 1019.1 0.0
14/09:00am 23.4 16.1 -6.5 13 12.0 E 24 30 13 16 1019.8 1019.2 0.0
14/08:30am 23.1 15.8 -5.8 14 11.8 ESE 24 30 13 16 1019.7 1019.1 0.0
14/08:00am 21.2 14.7 -6.4 15 10.9 ESE 20 24 11 13 1019.4 1018.8 0.0
14/07:30am 20.0 14.1 -5.8 17 10.2 ESE 17 22 9 12 1019.1 1018.4 0.0
14/07:00am 18.2 11.9 -5.8 19 9.3 ESE 19 24 10 13 1018.9 1018.2 0.0
14/06:30am 16.7 10.2 -6.3 20 8.7 SE 20 24 11 13 1018.7 1018.0 0.0
14/06:00am 15.8 9.9 -5.8 22 8.1 SE 17 20 9 11 1018.2 1017.5 0.0
14/05:30am 14.8 9.2 -6.7 22 7.9 SE 15 17 8 9 1017.7 1017.0 0.0
14/05:00am 14.5 10.0 -6.9 22 7.8 SE 9 11 5 6 1017.5 1016.8 0.0
14/04:30am 15.0 9.3 -7.1 21 8.0 SE 15 17 8 9 1017.2 1016.5 0.0
14/04:00am 15.7 9.6 -7.2 20 8.4 SSE 17 20 9 11 1017.1 1016.4 0.0
14/03:30am 15.9 9.4 -7.7 19 8.6 SSE 19 20 10 11 1017.2 1016.5 0.0
14/03:00am 16.0 9.9 -7.6 19 8.6 S 17 19 9 10 1017.1 1016.4 0.0
14/02:30am 16.2 10.1 -8.1 18 8.8 S 17 19 9 10 1017.2 1016.5 0.0
14/02:00am 16.0 10.2 -8.3 18 8.7 S 15 17 8 9 1017.5 1016.8 0.0
14/01:30am 16.7 11.3 -8.4 17 9.1 S 13 17 7 9 1017.6 1016.9 0.0
14/01:00am 17.3 11.5 -8.7 16 9.4 SSE 15 15 8 8 1017.9 1017.2 0.0
14/12:30am 18.3 12.5 -8.7 15 9.9 SSE 15 19 8 10 1018.2 1017.5 0.0
14/12:00am 19.0 12.4 -9.1 14 10.2 SSE 19 22 10 12 1018.3 1017.6 0.0
 
Date/Time
EST
Temp
°C
App
Temp
°C
Dew
Point
°C
Rel
Hum
%
Delta-T
°C
Wind Press
QNH
hPa
Press
MSL
hPa
Rain since
9am
mm
Dir  Spd
km/h
Gust
km/h
Spd
kts
Gust
kts
13/11:30pm 19.2 13.0 -8.9 14 10.3 SSE 17 19 9 10 1018.5 1017.8 0.0
13/11:00pm 19.7 13.5 -9.5 13 10.6 S 17 20 9 11 1018.5 1017.8 0.0
13/10:30pm 19.9 13.6 -10.3 12 10.9 SSE 17 19 9 10 1018.5 1017.8 0.0
13/10:00pm 20.5 14.2 -10.9 11 11.2 SSE 17 20 9 11 1018.4 1017.7 0.0
13/09:30pm 21.4 14.4 -11.4 10 11.8 SSE 20 22 11 12 1018.3 1017.6 0.0
13/09:00pm 22.1 15.3 -12.2 9 12.2 SSE 19 20 10 11 1017.9 1017.2 0.0
13/08:30pm 22.9 16.1 -11.6 9 12.6 S 19 22 10 12 1017.6 1016.9 0.0
13/08:00pm 23.5 16.7 -12.6 8 13.0 SSE 19 22 10 12 1017.2 1016.5 0.0
13/07:30pm 24.4 17.4 -11.9 8 13.4 SSE 20 26 11 14 1016.9 1016.2 0.0
13/07:00pm 25.3 17.1 -12.9 7 13.9 SSE 26 33 14 18 1016.6 1015.9 0.0
13/06:30pm 26.2 17.3 -12.3 7 14.3 SSE 30 39 16 21 1016.3 1015.6 0.0
13/06:00pm 26.9 18.0 -11.8 7 14.6 S 30 37 16 20 1016.2 1015.5 0.0
13/05:30pm 27.5 18.5 -13.2 6 15.1 SSE 30 41 16 22 1016.1 1015.4 0.0
13/05:00pm 27.8 19.0 -11.1 7 15.0 S 30 39 16 21 1016.1 1015.4 0.0
13/04:30pm 28.0 19.6 -11.0 7 15.2 S 28 35 15 19 1016.1 1015.4 0.0
13/04:00pm 27.7 18.9 -11.2 7 15.0 S 30 43 16 23 1016.1 1015.4 0.0
13/03:30pm 28.4 20.1 -9.0 8 15.1 S 28 39 15 21 1016.2 1015.5 0.0
13/03:00pm 28.9 21.3 -10.3 7 15.5 SSE 24 37 13 20 1016.4 1015.7 0.0
13/02:30pm 27.2 19.6 -9.9 8 14.6 SSE 24 35 13 19 1016.7 1016.0 0.0
13/02:00pm 27.7 20.1 -9.5 8 14.8 SE 24 35 13 19 1017.0 1016.3 0.0
13/01:30pm 27.4 19.3 -11.4 7 14.9 SSE 26 35 14 19 1017.5 1016.8 0.0
13/01:00pm 27.1 18.8 -8.5 9 14.3 S 28 41 15 22 1017.7 1017.0 0.0
13/12:30pm 25.0 17.1 -8.7 10 13.2 SSE 26 37 14 20 1018.1 1017.4 0.0
13/12:00pm 25.2 17.0 -7.3 11 13.1 SE 28 39 15 21 1018.4 1017.7 0.0
13/11:37am 24.7 16.7 -5.5 13 12.6 SE 28 46 15 25 1018.7 1018.0 0.0
13/11:30am 24.8 16.8 -5.5 13 12.6 SE 28 39 15 21 1018.8 1018.1 0.0
13/11:00am 24.3 16.1 -4.0 15 12.0 SSE 30 39 16 21 1019.2 1018.5 0.0
13/10:30am 23.0 14.2 -4.1 16 11.4 SE 33 46 18 25 1019.2 1018.5 0.0
13/10:00am 22.4 13.0 -3.1 18 10.8 SE 37 48 20 26 1019.4 1018.8 0.0
13/09:30am 21.9 13.3 -2.7 19 10.5 SE 33 44 18 24 1019.5 1018.9 0.0
13/09:00am 21.7 11.7 -1.6 21 10.1 SE 41 50 22 27 1019.7 1019.1 0.0
13/08:30am 20.5 10.1 -1.9 22 9.6 SE 43 54 23 29 1019.8 1019.2 0.0
13/08:00am 20.2 9.6 -1.6 23 9.4 SE 44 56 24 30 1019.6 1019.0 0.0
13/07:30am 19.5 9.4 -2.2 23 9.2 SE 41 50 22 27 1019.3 1018.7 0.0
13/07:00am 18.8 9.1 -2.2 24 8.8 SE 39 48 21 26 1018.8 1018.1 0.0
13/06:30am 18.3 9.8 -2.0 25 8.5 SE 33 46 18 25 1018.3 1017.6 0.0
13/06:00am 17.8 9.3 -1.9 26 8.2 SE 33 43 18 23 1017.9 1017.2 0.0
13/05:30am 17.7 10.5 -2.0 26 8.2 SSE 26 32 14 17 1017.3 1016.6 0.0
13/05:00am 18.3 11.2 -1.5 26 8.4 SSE 26 30 14 16 1016.7 1016.0 0.0
13/04:30am 19.0 11.9 -1.4 25 8.7 SSE 26 32 14 17 1016.4 1015.7 0.0
13/04:00am 19.4 13.0 -1.7 24 9.0 SSE 22 28 12 15 1016.0 1015.3 0.0
13/03:30am 20.2 12.7 -1.6 23 9.4 SSE 28 33 15 18 1015.6 1014.9 0.0
13/03:00am 20.7 13.1 -1.8 22 9.7 SSE 28 33 15 18 1015.3 1014.6 0.0
13/02:30am 21.2 13.2 -2.0 21 10.0 SSE 30 37 16 20 1015.1 1014.4 0.0
13/02:00am 22.1 13.6 -1.9 20 10.4 SSE 33 43 18 23 1015.0 1014.3 0.0
13/01:30am 22.6 14.0 -2.9 18 10.9 SSE 33 43 18 23 1015.0 1014.3 0.0
13/01:00am 23.3 14.4 -2.3 18 11.2 SSE 35 43 19 23 1015.1 1014.4 0.0
13/12:30am 23.7 14.8 -2.0 18 11.3 S 35 44 19 24 1015.1 1014.4 0.0
13/12:00am 24.2 15.4 -0.9 19 11.3 SSE 35 44 19 24 1015.0 1014.3 0.0
 
Date/Time
EST
Temp
°C
App
Temp
°C
Dew
Point
°C
Rel
Hum
%
Delta-T
°C
Wind Press
QNH
hPa
Press
MSL
hPa
Rain since
9am
mm
Dir  Spd
km/h
Gust
km/h
Spd
kts
Gust
kts
12/11:30pm 24.8 15.6 -1.1 18 11.7 S 37 48 20 26 1014.9 1014.2 0.0

Other formats

Comma delimited format used in spreadsheet applications
http://www.bom.gov.au/fwo/IDQ60801/IDQ60801.95487.axf

JavaScript Object Notation format (JSON) in row-major order
http://www.bom.gov.au/fwo/IDQ60801/IDQ60801.95487.json

Data quality

Most of these data are generated automatically and are frequently updated. Quality checks on data are not normally performed. It is possible for incorrect values to appear. Refer to information at About Latest Weather Observations and please check the disclaimer before using these data.